createdAt,value
2023-04-02T00:00:04.101Z,59.85
2023-04-02T00:03:22.686Z,60.11
2023-04-02T00:06:33.385Z,59.82
2023-04-02T00:09:38.427Z,59.87
2023-04-02T00:12:41.190Z,60.22
2023-04-02T00:15:46.820Z,60.21
2023-04-02T00:18:55.767Z,60.48
2023-04-02T00:22:00.743Z,60.58
2023-04-02T00:25:13.652Z,60.65
2023-04-02T00:28:21.348Z,60.61
2023-04-02T00:31:24.748Z,60.50
2023-04-02T00:34:37.900Z,60.96
2023-04-02T00:37:42.133Z,60.96
2023-04-02T00:40:45.017Z,61.28
2023-04-02T00:43:53.227Z,61.36
2023-04-02T00:46:58.561Z,61.34
2023-04-02T00:50:23.573Z,61.38
2023-04-02T00:53:30.337Z,61.54
2023-04-02T00:56:55.029Z,61.52
2023-04-02T01:00:01.387Z,61.47
2023-04-02T01:03:16.732Z,61.86
2023-04-02T01:06:19.325Z,62.01
2023-04-02T01:09:39.429Z,62.11
2023-04-02T01:12:58.826Z,62.03
2023-04-02T01:16:11.632Z,62.10
2023-04-02T01:19:23.261Z,62.16
2023-04-02T01:22:55.446Z,62.21
2023-04-02T01:26:03.496Z,62.11
2023-04-02T01:29:24.297Z,62.10
2023-04-02T01:32:30.597Z,61.95
2023-04-02T01:35:38.897Z,62.01
2023-04-02T01:38:52.398Z,62.25
2023-04-02T01:42:09.812Z,62.33
2023-04-02T01:45:18.255Z,62.31
2023-04-02T01:48:30.085Z,62.12
2023-04-02T01:51:34.870Z,61.94
2023-04-02T01:54:40.813Z,61.81
2023-04-02T01:57:49.407Z,61.83
2023-04-02T02:01:00.989Z,62.12
2023-04-02T02:04:06.139Z,61.88
2023-04-02T02:07:16.936Z,62.01
2023-04-02T02:10:28.236Z,62.05
2023-04-02T02:13:32.456Z,62.03
2023-04-02T02:16:42.468Z,61.74
2023-04-02T02:20:11.900Z,62.31
2023-04-02T02:23:15.522Z,62.38
2023-04-02T02:26:18.837Z,62.11
2023-04-02T02:29:24.390Z,62.12
2023-04-02T02:32:33.167Z,62.22
2023-04-02T02:35:39.401Z,62.16
2023-04-02T02:38:57.104Z,62.44
2023-04-02T02:42:28.642Z,62.11
2023-04-02T02:45:38.406Z,62.36
2023-04-02T02:48:42.608Z,62.27
2023-04-02T02:51:59.002Z,62.31
2023-04-02T02:55:12.926Z,62.26
2023-04-02T02:58:33.489Z,62.28
2023-04-02T03:01:45.252Z,62.22
2023-04-02T03:04:53.655Z,62.29
2023-04-02T03:08:02.614Z,62.10
2023-04-02T03:11:12.599Z,61.94
2023-04-02T03:14:38.118Z,62.19
2023-04-02T03:17:56.886Z,62.20
2023-04-02T03:21:31.471Z,62.23
2023-04-02T03:24:42.363Z,62.05
2023-04-02T03:27:49.427Z,62.01
2023-04-02T03:30:59.460Z,62.33
2023-04-02T03:34:11.542Z,61.94
2023-04-02T03:37:26.688Z,62.08
2023-04-02T03:40:35.073Z,62.29
2023-04-02T03:43:42.869Z,62.10
2023-04-02T03:46:57.822Z,61.75
2023-04-02T03:50:19.030Z,61.78
2023-04-02T03:53:24.580Z,61.79
2023-04-02T03:56:29.837Z,61.72
2023-04-02T03:59:47.892Z,61.70
2023-04-02T04:02:57.618Z,61.81
2023-04-02T04:06:12.057Z,61.70
2023-04-02T04:09:33.607Z,61.73
2023-04-02T04:12:41.146Z,61.38
2023-04-02T04:15:56.605Z,61.24
2023-04-02T04:19:06.680Z,61.38
2023-04-02T04:22:10.831Z,61.26
2023-04-02T04:25:26.031Z,61.47
2023-04-02T04:28:38.879Z,61.41
2023-04-02T04:31:47.706Z,61.42
2023-04-02T04:34:53.587Z,61.17
2023-04-02T04:38:15.053Z,61.26
2023-04-02T04:41:24.976Z,60.94
2023-04-02T04:44:51.925Z,61.08
2023-04-02T04:48:00.620Z,60.70
2023-04-02T04:51:17.573Z,60.48
2023-04-02T04:54:22.510Z,60.65
2023-04-02T04:57:36.964Z,60.35
2023-04-02T05:00:57.101Z,60.29
2023-04-02T05:04:31.593Z,60.36
2023-04-02T05:07:48.521Z,60.24
2023-04-02T05:11:06.063Z,60.06
2023-04-02T05:14:21.313Z,59.95
2023-04-02T05:17:29.726Z,59.42
2023-04-02T05:20:55.172Z,59.64
2023-04-02T05:24:26.249Z,59.08
2023-04-02T05:27:48.739Z,58.59
2023-04-02T05:31:03.252Z,58.55
2023-04-02T05:34:08.149Z,58.27
2023-04-02T05:37:19.571Z,58.33
2023-04-02T05:40:46.913Z,58.25
2023-04-02T05:43:56.382Z,57.89
2023-04-02T05:47:25.450Z,57.48
2023-04-02T05:50:37.038Z,57.03
2023-04-02T05:53:51.192Z,55.72
2023-04-02T05:57:03.509Z,54.14
2023-04-02T06:00:13.052Z,52.57
2023-04-02T06:03:29.256Z,51.18
2023-04-02T06:06:42.617Z,49.85
2023-04-02T06:09:56.800Z,49.12
2023-04-02T06:13:06.960Z,48.61
2023-04-02T06:16:16.412Z,47.81
2023-04-02T06:19:31.654Z,46.93
2023-04-02T06:22:40.357Z,46.10
2023-04-02T06:25:50.468Z,45.86
2023-04-02T06:29:25.277Z,45.70
2023-04-02T06:32:29.923Z,46.09
2023-04-02T06:35:41.338Z,46.12
2023-04-02T06:38:45.398Z,46.86
2023-04-02T06:41:55.986Z,47.50
2023-04-02T06:45:06.513Z,48.97
2023-04-02T06:48:23.245Z,50.23
2023-04-02T06:51:33.251Z,51.51
2023-04-02T06:54:38.129Z,52.42
2023-04-02T06:57:43.363Z,52.96
2023-04-02T07:00:51.399Z,53.50
2023-04-02T07:04:04.796Z,53.87
2023-04-02T07:07:13.329Z,54.04
2023-04-02T07:10:20.301Z,53.71
2023-04-02T07:13:25.306Z,53.67
2023-04-02T07:16:31.424Z,53.50
2023-04-02T07:19:33.191Z,53.74
2023-04-02T07:22:35.123Z,52.92
2023-04-02T07:25:38.340Z,52.54
2023-04-02T07:28:40.597Z,51.94
2023-04-02T07:31:43.950Z,51.57
2023-04-02T07:34:46.393Z,51.32
2023-04-02T07:37:49.183Z,51.17
2023-04-02T07:40:51.464Z,51.09
2023-04-02T07:43:54.536Z,51.32
2023-04-02T07:46:59.300Z,51.11
2023-04-02T07:50:02.616Z,51.19
2023-04-02T07:53:07.658Z,50.58
2023-04-02T07:56:15.531Z,50.29
2023-04-02T07:59:21.248Z,50.05
2023-04-02T08:02:24.236Z,50.07
2023-04-02T08:05:28.368Z,49.71
2023-04-02T08:08:31.024Z,50.50
2023-04-02T08:11:33.791Z,50.40
2023-04-02T08:14:36.068Z,51.19
2023-04-02T08:17:38.877Z,51.91
2023-04-02T08:20:42.259Z,51.16
2023-04-02T08:23:45.210Z,51.90
2023-04-02T08:26:49.298Z,52.31
2023-04-02T08:29:52.361Z,52.16
2023-04-02T08:32:54.657Z,52.56
2023-04-02T08:35:57.573Z,49.31
2023-04-02T08:38:59.874Z,49.60
2023-04-02T08:42:24.572Z,50.52
2023-04-02T08:45:59.873Z,51.59
2023-04-02T08:49:05.769Z,51.74
2023-04-02T08:52:32.652Z,44.52
2023-04-02T08:55:43.466Z,46.06
2023-04-02T08:58:59.552Z,45.16
2023-04-02T09:02:32.462Z,45.59
2023-04-02T09:05:39.855Z,45.83
2023-04-02T17:16:44.336Z,52.04
2023-04-02T17:19:51.064Z,51.71
